sensor_id;sensor_type;location;lat;lon;timestamp;pressure;altitude;pressure_sealevel;temperature;humidity
12215;BME280;6170;42.206;24.142;2023-02-04T00:00:04;98751.66;;;2.05;70.16
12215;BME280;6170;42.206;24.142;2023-02-04T00:02:32;98785.81;;;2.34;70.89
12215;BME280;6170;42.206;24.142;2023-02-04T00:04:59;98754.69;;;1.83;71.64
12215;BME280;6170;42.206;24.142;2023-02-04T00:07:27;98742.03;;;1.86;71.72
12215;BME280;6170;42.206;24.142;2023-02-04T00:09:54;98798.28;;;2.41;71.07
12215;BME280;6170;42.206;24.142;2023-02-04T00:12:21;98739.13;;;2.24;70.59
12215;BME280;6170;42.206;24.142;2023-02-04T00:14:48;98789.75;;;2.47;70.24
12215;BME280;6170;42.206;24.142;2023-02-04T00:17:15;98769.44;;;2.30;70.09
12215;BME280;6170;42.206;24.142;2023-02-04T00:19:42;98782.34;;;2.51;70.20
12215;BME280;6170;42.206;24.142;2023-02-04T00:22:09;98722.19;;;2.35;70.04
12215;BME280;6170;42.206;24.142;2023-02-04T00:24:37;98725.09;;;2.42;69.36
12215;BME280;6170;42.206;24.142;2023-02-04T00:27:05;98719.88;;;2.32;69.66
12215;BME280;6170;42.206;24.142;2023-02-04T00:29:32;98754.16;;;2.42;70.36
12215;BME280;6170;42.206;24.142;2023-02-04T00:31:58;98770.63;;;2.71;69.85
12215;BME280;6170;42.206;24.142;2023-02-04T00:34:25;98769.00;;;2.96;69.19
12215;BME280;6170;42.206;24.142;2023-02-04T00:36:52;98723.50;;;2.75;68.91
12215;BME280;6170;42.206;24.142;2023-02-04T00:39:19;98708.59;;;2.65;68.45
12215;BME280;6170;42.206;24.142;2023-02-04T00:41:47;98696.19;;;2.92;68.00
12215;BME280;6170;42.206;24.142;2023-02-04T00:44:14;98733.91;;;3.20;68.79
12215;BME280;6170;42.206;24.142;2023-02-04T00:46:41;98639.97;;;2.64;67.08
12215;BME280;6170;42.206;24.142;2023-02-04T00:49:08;98674.53;;;2.70;68.27
12215;BME280;6170;42.206;24.142;2023-02-04T00:51:37;98681.53;;;2.80;68.26
12215;BME280;6170;42.206;24.142;2023-02-04T00:54:04;98723.66;;;3.25;68.02
12215;BME280;6170;42.206;24.142;2023-02-04T00:56:31;98666.41;;;2.90;67.72
12215;BME280;6170;42.206;24.142;2023-02-04T00:59:00;98647.91;;;2.64;68.32
12215;BME280;6170;42.206;24.142;2023-02-04T01:01:27;98715.84;;;2.89;69.52
12215;BME280;6170;42.206;24.142;2023-02-04T01:03:53;98655.56;;;2.49;69.63
12215;BME280;6170;42.206;24.142;2023-02-04T01:06:20;98647.16;;;2.80;68.99
12215;BME280;6170;42.206;24.142;2023-02-04T01:08:47;98643.81;;;2.69;68.85
12215;BME280;6170;42.206;24.142;2023-02-04T01:11:14;98646.09;;;2.98;67.99
12215;BME280;6170;42.206;24.142;2023-02-04T01:13:41;98632.72;;;3.00;68.10
12215;BME280;6170;42.206;24.142;2023-02-04T01:16:09;98679.38;;;3.35;67.24
12215;BME280;6170;42.206;24.142;2023-02-04T01:18:36;98622.44;;;2.97;67.74
12215;BME280;6170;42.206;24.142;2023-02-04T01:21:03;98667.63;;;3.03;68.42
12215;BME280;6170;42.206;24.142;2023-02-04T01:23:29;98608.25;;;2.72;67.97
12215;BME280;6170;42.206;24.142;2023-02-04T01:25:56;98649.25;;;3.02;68.71
12215;BME280;6170;42.206;24.142;2023-02-04T01:28:23;98596.97;;;2.36;70.30
12215;BME280;6170;42.206;24.142;2023-02-04T01:30:50;98635.22;;;2.76;70.12
12215;BME280;6170;42.206;24.142;2023-02-04T01:33:18;98587.88;;;2.64;69.79
12215;BME280;6170;42.206;24.142;2023-02-04T01:35:45;98635.88;;;3.03;69.33
12215;BME280;6170;42.206;24.142;2023-02-04T01:38:12;98578.53;;;2.78;68.95
12215;BME280;6170;42.206;24.142;2023-02-04T01:40:39;98641.28;;;2.94;69.72
12215;BME280;6170;42.206;24.142;2023-02-04T01:43:06;98606.56;;;2.97;68.94
12215;BME280;6170;42.206;24.142;2023-02-04T01:45:33;98638.69;;;3.10;68.73
12215;BME280;6170;42.206;24.142;2023-02-04T01:48:01;98589.47;;;2.83;69.16
12215;BME280;6170;42.206;24.142;2023-02-04T01:50:31;98628.84;;;3.28;69.06
12215;BME280;6170;42.206;24.142;2023-02-04T01:52:58;98581.72;;;2.90;69.82
12215;BME280;6170;42.206;24.142;2023-02-04T01:55:27;98625.38;;;3.28;68.93
12215;BME280;6170;42.206;24.142;2023-02-04T01:57:55;98573.59;;;2.83;69.51
12215;BME280;6170;42.206;24.142;2023-02-04T02:00:25;98557.28;;;2.96;69.00
12215;BME280;6170;42.206;24.142;2023-02-04T02:02:52;98560.59;;;2.98;68.62
12215;BME280;6170;42.206;24.142;2023-02-04T02:05:21;98534.31;;;2.96;68.33
12215;BME280;6170;42.206;24.142;2023-02-04T02:07:53;98543.94;;;3.13;68.27
12215;BME280;6170;42.206;24.142;2023-02-04T02:10:20;98545.13;;;2.77;69.20
12215;BME280;6170;42.206;24.142;2023-02-04T02:12:48;98535.09;;;2.55;68.90
12215;BME280;6170;42.206;24.142;2023-02-04T02:15:16;98530.63;;;2.97;68.71
12215;BME280;6170;42.206;24.142;2023-02-04T02:17:43;98575.81;;;2.96;68.99
12215;BME280;6170;42.206;24.142;2023-02-04T02:20:12;98518.84;;;2.84;68.37
12215;BME280;6170;42.206;24.142;2023-02-04T02:22:48;98579.66;;;3.09;68.64
12215;BME280;6170;42.206;24.142;2023-02-04T02:25:19;98570.44;;;2.80;69.69
12215;BME280;6170;42.206;24.142;2023-02-04T02:27:46;98515.16;;;2.68;67.55
12215;BME280;6170;42.206;24.142;2023-02-04T02:30:13;98505.81;;;2.90;66.31
12215;BME280;6170;42.206;24.142;2023-02-04T02:32:42;98558.50;;;3.17;66.05
12215;BME280;6170;42.206;24.142;2023-02-04T02:35:10;98510.31;;;3.06;64.69
12215;BME280;6170;42.206;24.142;2023-02-04T02:37:37;98508.31;;;2.92;64.55
12215;BME280;6170;42.206;24.142;2023-02-04T02:40:05;98511.25;;;2.89;65.16
12215;BME280;6170;42.206;24.142;2023-02-04T02:42:34;98507.31;;;2.51;67.22
12215;BME280;6170;42.206;24.142;2023-02-04T02:45:02;98543.75;;;2.65;67.56
12215;BME280;6170;42.206;24.142;2023-02-04T02:47:31;98492.66;;;2.56;67.18
12215;BME280;6170;42.206;24.142;2023-02-04T02:49:58;98534.00;;;2.65;67.97
12215;BME280;6170;42.206;24.142;2023-02-04T02:52:25;98493.81;;;2.28;68.76
12215;BME280;6170;42.206;24.142;2023-02-04T02:54:52;98481.97;;;2.40;68.72
12215;BME280;6170;42.206;24.142;2023-02-04T02:57:20;98498.78;;;2.65;68.04
12215;BME280;6170;42.206;24.142;2023-02-04T02:59:49;98482.63;;;2.76;67.99
12215;BME280;6170;42.206;24.142;2023-02-04T03:02:18;98516.94;;;3.10;67.71
12215;BME280;6170;42.206;24.142;2023-02-04T03:04:50;98467.25;;;2.88;67.40
12215;BME280;6170;42.206;24.142;2023-02-04T03:07:20;98464.97;;;2.93;66.40
12215;BME280;6170;42.206;24.142;2023-02-04T03:09:48;98518.81;;;3.26;66.57
12215;BME280;6170;42.206;24.142;2023-02-04T03:12:17;98469.28;;;3.02;66.59
12215;BME280;6170;42.206;24.142;2023-02-04T03:14:44;98533.72;;;3.35;66.76
12215;BME280;6170;42.206;24.142;2023-02-04T03:17:12;98512.34;;;3.28;66.87
12215;BME280;6170;42.206;24.142;2023-02-04T03:19:40;98453.25;;;3.03;66.94
12215;BME280;6170;42.206;24.142;2023-02-04T03:22:07;98462.66;;;2.98;66.63
12215;BME280;6170;42.206;24.142;2023-02-04T03:24:35;98444.50;;;3.03;66.51
12215;BME280;6170;42.206;24.142;2023-02-04T03:27:02;98493.91;;;2.94;67.54
12215;BME280;6170;42.206;24.142;2023-02-04T03:29:29;98447.59;;;2.82;66.75
12215;BME280;6170;42.206;24.142;2023-02-04T03:31:56;98497.56;;;3.01;68.23
12215;BME280;6170;42.206;24.142;2023-02-04T03:34:25;98450.41;;;2.89;67.38
12215;BME280;6170;42.206;24.142;2023-02-04T03:36:52;98412.19;;;2.25;68.78
12215;BME280;6170;42.206;24.142;2023-02-04T03:39:19;98454.84;;;2.72;68.72
12215;BME280;6170;42.206;24.142;2023-02-04T03:41:46;98409.81;;;2.48;69.04
12215;BME280;6170;42.206;24.142;2023-02-04T03:44:13;98404.16;;;2.43;69.16
12215;BME280;6170;42.206;24.142;2023-02-04T03:46:39;98452.53;;;2.35;69.15
12215;BME280;6170;42.206;24.142;2023-02-04T03:49:06;98385.66;;;2.01;68.81
12215;BME280;6170;42.206;24.142;2023-02-04T03:51:34;98387.34;;;2.10;68.97
12215;BME280;6170;42.206;24.142;2023-02-04T03:54:01;98448.38;;;2.24;68.50
12215;BME280;6170;42.206;24.142;2023-02-04T03:56:28;98393.25;;;2.04;68.34
12215;BME280;6170;42.206;24.142;2023-02-04T03:58:55;98454.75;;;2.14;69.30
12215;BME280;6170;42.206;24.142;2023-02-04T04:01:22;98395.75;;;2.05;69.30
12215;BME280;6170;42.206;24.142;2023-02-04T04:03:48;98405.56;;;1.87;69.46
12215;BME280;6170;42.206;24.142;2023-02-04T04:06:15;98408.47;;;1.76;70.14
12215;BME280;6170;42.206;24.142;2023-02-04T04:08:43;98466.81;;;1.65;72.15
12215;BME280;6170;42.206;24.142;2023-02-04T04:11:10;98396.94;;;1.33;71.78
12215;BME280;6170;42.206;24.142;2023-02-04T04:13:37;98396.25;;;1.49;71.69
12215;BME280;6170;42.206;24.142;2023-02-04T04:16:05;98453.00;;;1.97;71.33
12215;BME280;6170;42.206;24.142;2023-02-04T04:18:33;98409.41;;;1.23;72.42
12215;BME280;6170;42.206;24.142;2023-02-04T04:21:00;98387.34;;;1.50;71.36
12215;BME280;6170;42.206;24.142;2023-02-04T04:23:27;98376.97;;;1.57;71.08
12215;BME280;6170;42.206;24.142;2023-02-04T04:25:55;98389.88;;;1.60;70.73
12215;BME280;6170;42.206;24.142;2023-02-04T04:28:22;98385.53;;;1.76;70.75
12215;BME280;6170;42.206;24.142;2023-02-04T04:30:49;98391.16;;;1.81;70.91
12215;BME280;6170;42.206;24.142;2023-02-04T04:33:16;98366.19;;;1.68;70.52
12215;BME280;6170;42.206;24.142;2023-02-04T04:35:42;98415.75;;;1.82;70.96
12215;BME280;6170;42.206;24.142;2023-02-04T04:38:09;98374.25;;;1.66;71.21
12215;BME280;6170;42.206;24.142;2023-02-04T04:40:36;98361.53;;;2.04;70.40
12215;BME280;6170;42.206;24.142;2023-02-04T04:43:04;98377.34;;;1.96;70.90
12215;BME280;6170;42.206;24.142;2023-02-04T04:45:31;98365.66;;;1.98;71.18
12215;BME280;6170;42.206;24.142;2023-02-04T04:47:58;98343.75;;;1.46;72.39
12215;BME280;6170;42.206;24.142;2023-02-04T04:50:24;98349.84;;;1.47;72.42
12215;BME280;6170;42.206;24.142;2023-02-04T04:52:51;98407.13;;;1.72;72.80
12215;BME280;6170;42.206;24.142;2023-02-04T04:55:18;98351.47;;;1.14;73.63
12215;BME280;6170;42.206;24.142;2023-02-04T04:57:45;98354.69;;;1.08;74.20
12215;BME280;6170;42.206;24.142;2023-02-04T05:00:16;98401.31;;;1.43;74.80
12215;BME280;6170;42.206;24.142;2023-02-04T05:02:43;98354.56;;;1.09;75.15
12215;BME280;6170;42.206;24.142;2023-02-04T05:05:10;98348.91;;;1.04;74.61
12215;BME280;6170;42.206;24.142;2023-02-04T05:07:37;98381.91;;;1.08;74.97
12215;BME280;6170;42.206;24.142;2023-02-04T05:10:05;98373.44;;;1.22;74.70
12215;BME280;6170;42.206;24.142;2023-02-04T05:12:32;98379.00;;;1.37;74.33
12215;BME280;6170;42.206;24.142;2023-02-04T05:14:58;98418.81;;;1.69;73.96
12215;BME280;6170;42.206;24.142;2023-02-04T05:17:26;98410.78;;;1.79;73.96
12215;BME280;6170;42.206;24.142;2023-02-04T05:19:53;98405.81;;;2.02;73.04
12215;BME280;6170;42.206;24.142;2023-02-04T05:22:20;98423.44;;;2.35;72.13
12215;BME280;6170;42.206;24.142;2023-02-04T05:24:47;98359.03;;;1.94;72.72
12215;BME280;6170;42.206;24.142;2023-02-04T05:27:14;98429.94;;;2.49;71.99
12215;BME280;6170;42.206;24.142;2023-02-04T05:29:40;98398.97;;;1.91;73.24
12215;BME280;6170;42.206;24.142;2023-02-04T05:32:07;98352.22;;;1.84;73.94
12215;BME280;6170;42.206;24.142;2023-02-04T05:34:35;98416.84;;;1.97;74.33
12215;BME280;6170;42.206;24.142;2023-02-04T05:37:02;98387.28;;;1.42;75.74
12215;BME280;6170;42.206;24.142;2023-02-04T05:39:29;98416.38;;;2.44;68.87
12215;BME280;6170;42.206;24.142;2023-02-04T05:41:55;98364.72;;;2.07;69.40
12215;BME280;6170;42.206;24.142;2023-02-04T05:44:22;98424.72;;;2.65;69.27
12215;BME280;6170;42.206;24.142;2023-02-04T05:46:49;98411.75;;;2.38;69.59
12215;BME280;6170;42.206;24.142;2023-02-04T05:49:16;98417.41;;;2.51;69.77
12215;BME280;6170;42.206;24.142;2023-02-04T05:51:44;98351.69;;;2.22;69.28
12215;BME280;6170;42.206;24.142;2023-02-04T05:54:11;98420.75;;;2.61;70.22
12215;BME280;6170;42.206;24.142;2023-02-04T05:56:44;98398.59;;;2.70;68.83
12215;BME280;6170;42.206;24.142;2023-02-04T05:59:11;98438.81;;;2.82;69.38
12215;BME280;6170;42.206;24.142;2023-02-04T06:01:38;98394.44;;;2.51;69.45
12215;BME280;6170;42.206;24.142;2023-02-04T06:04:05;98358.88;;;2.46;70.12
12215;BME280;6170;42.206;24.142;2023-02-04T06:06:31;98425.47;;;2.99;69.01
12215;BME280;6170;42.206;24.142;2023-02-04T06:09:00;98436.19;;;2.90;69.60
12215;BME280;6170;42.206;24.142;2023-02-04T06:11:26;98391.69;;;2.77;69.09
12215;BME280;6170;42.206;24.142;2023-02-04T06:13:53;98406.25;;;2.81;69.16
12215;BME280;6170;42.206;24.142;2023-02-04T06:16:20;98406.38;;;2.71;69.65
12215;BME280;6170;42.206;24.142;2023-02-04T06:18:47;98469.97;;;3.12;69.25
12215;BME280;6170;42.206;24.142;2023-02-04T06:21:14;98465.22;;;3.32;68.68
12215;BME280;6170;42.206;24.142;2023-02-04T06:23:40;98457.94;;;3.34;68.85
12215;BME280;6170;42.206;24.142;2023-02-04T06:26:09;98452.97;;;3.47;68.28
12215;BME280;6170;42.206;24.142;2023-02-04T06:28:35;98406.63;;;3.19;69.58
12215;BME280;6170;42.206;24.142;2023-02-04T06:31:02;98392.22;;;3.13;69.05
12215;BME280;6170;42.206;24.142;2023-02-04T06:33:29;98389.72;;;2.95;70.18
12215;BME280;6170;42.206;24.142;2023-02-04T06:35:56;98403.59;;;2.89;71.16
12215;BME280;6170;42.206;24.142;2023-02-04T06:38:23;98426.94;;;3.10;70.95
12215;BME280;6170;42.206;24.142;2023-02-04T06:40:49;98412.72;;;3.03;71.03
12215;BME280;6170;42.206;24.142;2023-02-04T06:43:19;98404.63;;;3.12;71.26
12215;BME280;6170;42.206;24.142;2023-02-04T06:45:46;98403.63;;;4.87;67.31
12215;BME280;6170;42.206;24.142;2023-02-04T06:48:15;98401.53;;;6.83;61.76
12215;BME280;6170;42.206;24.142;2023-02-04T06:50:42;98420.44;;;8.28;58.20
12215;BME280;6170;42.206;24.142;2023-02-04T06:53:08;98386.94;;;9.47;53.62
12215;BME280;6170;42.206;24.142;2023-02-04T06:55:35;98441.47;;;10.31;51.72
12215;BME280;6170;42.206;24.142;2023-02-04T06:58:02;98413.69;;;10.32;52.35
12215;BME280;6170;42.206;24.142;2023-02-04T07:00:30;98417.50;;;11.07;49.45
12215;BME280;6170;42.206;24.142;2023-02-04T07:02:57;98419.19;;;11.71;49.37
12215;BME280;6170;42.206;24.142;2023-02-04T07:05:24;98414.41;;;12.23;48.35
12215;BME280;6170;42.206;24.142;2023-02-04T07:07:51;98418.53;;;11.44;49.10
12215;BME280;6170;42.206;24.142;2023-02-04T07:10:18;98470.69;;;11.86;48.68
12215;BME280;6170;42.206;24.142;2023-02-04T07:12:45;98432.44;;;10.97;50.97
12215;BME280;6170;42.206;24.142;2023-02-04T07:15:12;98463.13;;;12.26;49.57
12215;BME280;6170;42.206;24.142;2023-02-04T07:17:40;98409.19;;;13.19;48.47
12215;BME280;6170;42.206;24.142;2023-02-04T07:20:09;98395.59;;;11.80;49.73
12215;BME280;6170;42.206;24.142;2023-02-04T07:22:36;98420.41;;;10.61;52.91
12215;BME280;6170;42.206;24.142;2023-02-04T07:25:03;98431.63;;;9.60;55.69
12215;BME280;6170;42.206;24.142;2023-02-04T07:27:29;98428.94;;;10.25;54.99
12215;BME280;6170;42.206;24.142;2023-02-04T07:29:56;98368.16;;;10.32;54.04
12215;BME280;6170;42.206;24.142;2023-02-04T07:32:23;98338.19;;;9.84;54.64
12215;BME280;6170;42.206;24.142;2023-02-04T07:34:53;98369.66;;;9.89;54.01
12215;BME280;6170;42.206;24.142;2023-02-04T07:37:20;98396.00;;;9.53;54.80
12215;BME280;6170;42.206;24.142;2023-02-04T07:39:48;98347.47;;;9.82;53.84
12215;BME280;6170;42.206;24.142;2023-02-04T07:42:14;98402.78;;;10.34;52.97
12215;BME280;6170;42.206;24.142;2023-02-04T07:44:41;98352.97;;;10.13;52.63
12215;BME280;6170;42.206;24.142;2023-02-04T07:47:08;98360.63;;;9.70;53.20
12215;BME280;6170;42.206;24.142;2023-02-04T07:49:36;98403.81;;;10.20;52.74
12215;BME280;6170;42.206;24.142;2023-02-04T07:52:04;98375.84;;;9.63;52.75
12215;BME280;6170;42.206;24.142;2023-02-04T07:54:31;98352.56;;;9.97;51.54
12215;BME280;6170;42.206;24.142;2023-02-04T07:56:58;98393.31;;;9.92;51.38
12215;BME280;6170;42.206;24.142;2023-02-04T07:59:24;98329.50;;;10.09;50.66
12215;BME280;6170;42.206;24.142;2023-02-04T08:01:51;98330.91;;;10.18;49.55
12215;BME280;6170;42.206;24.142;2023-02-04T08:04:18;98364.66;;;10.32;50.06
12215;BME280;6170;42.206;24.142;2023-02-04T08:06:44;98327.75;;;10.41;49.79
12215;BME280;6170;42.206;24.142;2023-02-04T08:09:13;98358.34;;;10.64;49.83
12215;BME280;6170;42.206;24.142;2023-02-04T08:11:39;98367.16;;;10.20;50.24
12215;BME280;6170;42.206;24.142;2023-02-04T08:14:06;98322.31;;;9.89;50.05
12215;BME280;6170;42.206;24.142;2023-02-04T08:16:33;98357.91;;;10.16;49.83
12215;BME280;6170;42.206;24.142;2023-02-04T08:19:00;98306.19;;;10.22;49.53
12215;BME280;6170;42.206;24.142;2023-02-04T08:21:26;98305.47;;;10.53;49.42
12215;BME280;6170;42.206;24.142;2023-02-04T08:23:53;98341.91;;;10.61;49.11
12215;BME280;6170;42.206;24.142;2023-02-04T08:26:21;98334.88;;;10.60;49.16
12215;BME280;6170;42.206;24.142;2023-02-04T08:28:48;98317.97;;;10.59;48.67
12215;BME280;6170;42.206;24.142;2023-02-04T08:31:15;98268.34;;;10.57;49.36
12215;BME280;6170;42.206;24.142;2023-02-04T08:33:41;98272.34;;;10.79;47.92
12215;BME280;6170;42.206;24.142;2023-02-04T08:36:08;98259.06;;;10.59;47.98
12215;BME280;6170;42.206;24.142;2023-02-04T08:38:35;98269.91;;;10.71;47.65
12215;BME280;6170;42.206;24.142;2023-02-04T08:41:02;98313.66;;;11.27;47.10
12215;BME280;6170;42.206;24.142;2023-02-04T08:43:30;98303.00;;;11.64;46.93
12215;BME280;6170;42.206;24.142;2023-02-04T08:45:57;98277.06;;;11.08;46.63
12215;BME280;6170;42.206;24.142;2023-02-04T08:48:23;98252.84;;;10.65;47.70
12215;BME280;6170;42.206;24.142;2023-02-04T08:50:50;98310.91;;;10.71;47.72
12215;BME280;6170;42.206;24.142;2023-02-04T08:53:17;98261.97;;;10.51;48.15
12215;BME280;6170;42.206;24.142;2023-02-04T08:55:44;98257.78;;;10.24;48.27
12215;BME280;6170;42.206;24.142;2023-02-04T08:58:11;98312.38;;;10.23;47.70
12215;BME280;6170;42.206;24.142;2023-02-04T09:00:39;98321.47;;;10.09;48.09
12215;BME280;6170;42.206;24.142;2023-02-04T09:03:05;98270.41;;;9.97;48.42
12215;BME280;6170;42.206;24.142;2023-02-04T09:05:32;98263.47;;;9.83;48.27
12215;BME280;6170;42.206;24.142;2023-02-04T09:07:59;98234.75;;;9.45;47.81
12215;BME280;6170;42.206;24.142;2023-02-04T09:10:26;98301.84;;;10.34;48.30
12215;BME280;6170;42.206;24.142;2023-02-04T09:12:52;98286.75;;;10.40;47.80
12215;BME280;6170;42.206;24.142;2023-02-04T09:15:21;98294.13;;;10.51;48.15
12215;BME280;6170;42.206;24.142;2023-02-04T09:17:49;98274.25;;;10.27;47.36
12215;BME280;6170;42.206;24.142;2023-02-04T09:20:18;98269.97;;;10.20;47.93
12215;BME280;6170;42.206;24.142;2023-02-04T09:22:45;98258.31;;;10.46;47.53
12215;BME280;6170;42.206;24.142;2023-02-04T09:25:12;98255.16;;;10.87;47.25
12215;BME280;6170;42.206;24.142;2023-02-04T09:27:39;98244.09;;;11.51;45.81
12215;BME280;6170;42.206;24.142;2023-02-04T09:30:07;98243.31;;;11.50;46.96
12215;BME280;6170;42.206;24.142;2023-02-04T09:32:34;98268.53;;;12.40;45.39
12215;BME280;6170;42.206;24.142;2023-02-04T09:35:02;98269.81;;;12.38;45.61
12215;BME280;6170;42.206;24.142;2023-02-04T09:37:29;98230.22;;;12.45;44.99
12215;BME280;6170;42.206;24.142;2023-02-04T09:39:56;98267.72;;;12.22;44.59
12215;BME280;6170;42.206;24.142;2023-02-04T09:42:24;98259.25;;;12.54;45.05
12215;BME280;6170;42.206;24.142;2023-02-04T09:44:51;98216.91;;;11.90;46.16
12215;BME280;6170;42.206;24.142;2023-02-04T09:47:21;98264.97;;;12.28;45.10
12215;BME280;6170;42.206;24.142;2023-02-04T09:49:49;98209.09;;;11.64;46.22
12215;BME280;6170;42.206;24.142;2023-02-04T09:52:17;98215.78;;;11.37;45.64
12215;BME280;6170;42.206;24.142;2023-02-04T09:54:45;98207.28;;;11.40;46.84
12215;BME280;6170;42.206;24.142;2023-02-04T09:57:14;98201.56;;;11.54;45.81
12215;BME280;6170;42.206;24.142;2023-02-04T09:59:43;98186.94;;;11.07;46.24
12215;BME280;6170;42.206;24.142;2023-02-04T10:02:19;98202.00;;;11.08;46.02
12215;BME280;6170;42.206;24.142;2023-02-04T10:04:47;98191.91;;;11.10;47.39
12215;BME280;6170;42.206;24.142;2023-02-04T10:07:18;98196.72;;;11.63;45.86
12215;BME280;6170;42.206;24.142;2023-02-04T10:09:49;98192.59;;;11.24;46.89
12215;BME280;6170;42.206;24.142;2023-02-04T10:12:17;98189.72;;;11.01;46.99
12215;BME280;6170;42.206;24.142;2023-02-04T10:14:44;98177.06;;;10.83;47.03
12215;BME280;6170;42.206;24.142;2023-02-04T10:17:11;98236.38;;;11.18;47.74
12215;BME280;6170;42.206;24.142;2023-02-04T10:19:40;98192.53;;;10.56;47.60
12215;BME280;6170;42.206;24.142;2023-02-04T10:22:15;98221.59;;;10.84;48.15
12215;BME280;6170;42.206;24.142;2023-02-04T10:24:44;98201.16;;;10.58;48.67
12215;BME280;6170;42.206;24.142;2023-02-04T10:27:12;98178.44;;;10.92;48.31
12215;BME280;6170;42.206;24.142;2023-02-04T10:29:41;98152.84;;;10.96;47.82
12215;BME280;6170;42.206;24.142;2023-02-04T10:32:24;98222.94;;;11.43;48.60
12215;BME280;6170;42.206;24.142;2023-02-04T10:34:56;98171.16;;;11.60;47.93
12215;BME280;6170;42.206;24.142;2023-02-04T10:37:23;98181.75;;;11.92;46.91
12215;BME280;6170;42.206;24.142;2023-02-04T10:39:51;98224.97;;;11.65;48.18
12215;BME280;6170;42.206;24.142;2023-02-04T10:42:22;98180.00;;;11.43;49.09
12215;BME280;6170;42.206;24.142;2023-02-04T10:44:50;98180.38;;;11.64;48.96
12215;BME280;6170;42.206;24.142;2023-02-04T10:47:18;98178.09;;;11.50;48.60
12215;BME280;6170;42.206;24.142;2023-02-04T10:49:54;98165.72;;;11.49;49.81
12215;BME280;6170;42.206;24.142;2023-02-04T10:52:23;98207.41;;;12.06;49.65
12215;BME280;6170;42.206;24.142;2023-02-04T10:54:53;98182.78;;;11.36;50.02
12215;BME280;6170;42.206;24.142;2023-02-04T10:57:22;98177.91;;;10.84;49.99
12215;BME280;6170;42.206;24.142;2023-02-04T10:59:50;98183.00;;;10.29;51.05
12215;BME280;6170;42.206;24.142;2023-02-04T11:02:43;98185.41;;;9.92;51.83
12215;BME280;6170;42.206;24.142;2023-02-04T11:05:14;98187.59;;;9.64;51.95
12215;BME280;6170;42.206;24.142;2023-02-04T11:07:41;98193.38;;;9.55;52.36
12215;BME280;6170;42.206;24.142;2023-02-04T11:10:15;98215.63;;;9.42;53.48
12215;BME280;6170;42.206;24.142;2023-02-04T11:12:44;98174.97;;;8.94;54.02
12215;BME280;6170;42.206;24.142;2023-02-04T11:18:26;98242.59;;;9.27;54.54
12215;BME280;6170;42.206;24.142;2023-02-04T11:20:56;98189.34;;;9.13;54.69
12215;BME280;6170;42.206;24.142;2023-02-04T11:23:32;98231.44;;;9.43;55.09
12215;BME280;6170;42.206;24.142;2023-02-04T11:26:09;98189.34;;;9.19;54.93
12215;BME280;6170;42.206;24.142;2023-02-04T11:29:06;98198.78;;;9.28;55.57
12215;BME280;6170;42.206;24.142;2023-02-04T11:31:55;98198.56;;;9.30;56.04
12215;BME280;6170;42.206;24.142;2023-02-04T11:34:28;98185.81;;;9.32;55.31
12215;BME280;6170;42.206;24.142;2023-02-04T11:37:10;98182.56;;;8.64;56.21
12215;BME280;6170;42.206;24.142;2023-02-04T11:39:40;98181.75;;;8.64;56.93
12215;BME280;6170;42.206;24.142;2023-02-04T11:42:18;98190.75;;;8.43;57.24
12215;BME280;6170;42.206;24.142;2023-02-04T11:44:53;98231.06;;;8.94;56.92
12215;BME280;6170;42.206;24.142;2023-02-04T11:47:23;98197.34;;;8.47;57.66
12215;BME280;6170;42.206;24.142;2023-02-04T11:49:56;98203.91;;;8.44;57.65
12215;BME280;6170;42.206;24.142;2023-02-04T11:52:24;98201.03;;;8.46;58.18
12215;BME280;6170;42.206;24.142;2023-02-04T11:54:55;98203.28;;;8.42;58.11
12215;BME280;6170;42.206;24.142;2023-02-04T11:57:24;98243.41;;;8.88;58.40
12215;BME280;6170;42.206;24.142;2023-02-04T11:59:51;98199.78;;;8.42;58.47
12215;BME280;6170;42.206;24.142;2023-02-04T12:02:19;98197.06;;;8.22;59.23
12215;BME280;6170;42.206;24.142;2023-02-04T12:04:51;98202.78;;;8.19;59.15
12215;BME280;6170;42.206;24.142;2023-02-04T12:07:22;98195.81;;;8.18;59.17
12215;BME280;6170;42.206;24.142;2023-02-04T12:09:50;98192.50;;;8.09;59.97
12215;BME280;6170;42.206;24.142;2023-02-04T12:12:26;98204.81;;;8.04;60.91
12215;BME280;6170;42.206;24.142;2023-02-04T12:15:00;98243.09;;;8.37;61.53
12215;BME280;6170;42.206;24.142;2023-02-04T12:17:27;98198.66;;;8.10;61.74
12215;BME280;6170;42.206;24.142;2023-02-04T12:19:54;98195.97;;;8.03;62.48
12215;BME280;6170;42.206;24.142;2023-02-04T12:22:21;98205.13;;;7.88;62.25
12215;BME280;6170;42.206;24.142;2023-02-04T12:24:47;98199.44;;;7.97;62.63
12215;BME280;6170;42.206;24.142;2023-02-04T12:27:14;98193.13;;;8.11;62.20
12215;BME280;6170;42.206;24.142;2023-02-04T12:29:42;98202.78;;;8.19;63.11
12215;BME280;6170;42.206;24.142;2023-02-04T12:32:09;98188.59;;;8.12;62.57
12215;BME280;6170;42.206;24.142;2023-02-04T12:34:36;98253.09;;;8.29;63.69
12215;BME280;6170;42.206;24.142;2023-02-04T12:37:02;98193.91;;;8.05;63.73
12215;BME280;6170;42.206;24.142;2023-02-04T12:39:29;98247.25;;;8.40;63.47
12215;BME280;6170;42.206;24.142;2023-02-04T12:41:57;98184.09;;;8.12;62.18
12215;BME280;6170;42.206;24.142;2023-02-04T12:44:23;98227.91;;;8.31;62.47
12215;BME280;6170;42.206;24.142;2023-02-04T12:46:51;98204.91;;;8.30;62.41
12215;BME280;6170;42.206;24.142;2023-02-04T12:49:19;98250.78;;;8.67;62.14
12215;BME280;6170;42.206;24.142;2023-02-04T12:51:48;98201.25;;;8.44;62.07
12215;BME280;6170;42.206;24.142;2023-02-04T12:54:15;98238.84;;;8.56;62.70
12215;BME280;6170;42.206;24.142;2023-02-04T12:56:42;98208.44;;;8.57;61.76
12215;BME280;6170;42.206;24.142;2023-02-04T12:59:09;98208.03;;;8.53;61.72
12215;BME280;6170;42.206;24.142;2023-02-04T13:01:36;98225.69;;;8.54;61.06
12215;BME280;6170;42.206;24.142;2023-02-04T13:04:04;98209.84;;;8.33;61.78
12215;BME280;6170;42.206;24.142;2023-02-04T13:06:31;98175.47;;;8.04;61.93
12215;BME280;6170;42.206;24.142;2023-02-04T13:08:58;98213.25;;;8.21;62.37
12215;BME280;6170;42.206;24.142;2023-02-04T13:11:24;98258.94;;;8.39;61.60
12215;BME280;6170;42.206;24.142;2023-02-04T13:13:51;98216.97;;;8.26;62.71